createdAt,value
2022-10-07T00:02:26.850Z,3.10
2022-10-07T00:04:54.343Z,3.35
2022-10-07T00:07:21.836Z,3.53
2022-10-07T00:09:49.300Z,4.18
2022-10-07T00:12:16.826Z,3.85
2022-10-07T00:14:44.400Z,3.30
2022-10-07T00:17:11.974Z,3.40
2022-10-07T00:19:41.005Z,3.30
2022-10-07T00:22:08.676Z,3.47
2022-10-07T00:24:36.283Z,3.30
2022-10-07T00:27:03.789Z,3.10
2022-10-07T00:29:31.334Z,3.08
2022-10-07T00:31:59.091Z,3.00
2022-10-07T00:34:26.695Z,3.38
2022-10-07T00:36:55.607Z,3.45
2022-10-07T00:39:23.119Z,3.28
2022-10-07T00:41:52.152Z,3.42
2022-10-07T00:44:35.574Z,3.15
2022-10-07T00:47:04.896Z,3.47
2022-10-07T00:49:34.774Z,3.45
2022-10-07T00:52:03.700Z,3.70
2022-10-07T00:54:31.268Z,3.55
2022-10-07T00:56:59.147Z,3.28
2022-10-07T00:59:27.690Z,3.45
2022-10-07T01:01:55.175Z,2.92
2022-10-07T01:04:22.663Z,3.38
2022-10-07T01:06:50.289Z,3.55
2022-10-07T01:09:21.377Z,3.20
2022-10-07T01:11:51.825Z,3.10
2022-10-07T01:14:26.297Z,3.38
2022-10-07T01:16:57.318Z,3.00
2022-10-07T01:19:36.259Z,3.58
2022-10-07T01:22:12.421Z,3.30
2022-10-07T01:24:43.874Z,3.30
2022-10-07T01:27:13.997Z,3.35
2022-10-07T01:29:44.079Z,3.20
2022-10-07T01:32:13.901Z,3.53
2022-10-07T01:34:42.695Z,3.22
2022-10-07T01:37:12.796Z,3.60
2022-10-07T01:39:43.213Z,3.80
2022-10-07T01:42:11.528Z,3.38
2022-10-07T01:44:41.081Z,3.58
2022-10-07T01:47:08.728Z,3.55
2022-10-07T01:49:36.990Z,4.05
2022-10-07T01:52:11.687Z,3.67
2022-10-07T01:54:43.781Z,3.42
2022-10-07T01:57:18.229Z,3.40
2022-10-07T02:00:06.918Z,3.70
2022-10-07T02:02:54.120Z,3.78
2022-10-07T02:05:27.110Z,3.53
2022-10-07T02:08:03.176Z,3.97
2022-10-07T02:10:34.260Z,3.67
2022-10-07T02:13:05.717Z,3.78
2022-10-07T02:15:34.973Z,3.50
2022-10-07T02:18:06.617Z,3.85
2022-10-07T02:20:35.856Z,3.97
2022-10-07T02:23:05.808Z,4.03
2022-10-07T02:25:40.696Z,3.83
2022-10-07T02:28:10.305Z,3.75
2022-10-07T02:30:38.770Z,4.07
2022-10-07T02:33:09.728Z,3.63
2022-10-07T02:35:40.521Z,4.15
2022-10-07T02:38:10.196Z,3.65
2022-10-07T02:40:39.148Z,4.18
2022-10-07T02:43:10.636Z,3.90
2022-10-07T02:45:43.067Z,4.50
2022-10-07T02:48:15.731Z,4.45
2022-10-07T02:50:44.765Z,4.55
2022-10-07T02:53:14.115Z,4.00
2022-10-07T02:55:43.851Z,4.30
2022-10-07T02:58:12.565Z,4.53
2022-10-07T03:00:41.450Z,4.68
2022-10-07T03:03:09.647Z,4.78
2022-10-07T03:05:49.208Z,4.15
2022-10-07T03:08:16.966Z,4.82
2022-10-07T03:10:45.562Z,4.20
2022-10-07T03:13:15.541Z,4.38
2022-10-07T03:15:48.120Z,4.22
2022-10-07T03:18:29.526Z,4.53
2022-10-07T03:21:25.061Z,4.20
2022-10-07T03:23:55.252Z,4.95
2022-10-07T03:26:27.113Z,4.43
2022-10-07T03:28:55.163Z,4.90
2022-10-07T03:31:23.204Z,4.47
2022-10-07T03:33:55.239Z,4.97
2022-10-07T03:36:24.545Z,5.25
2022-10-07T03:38:52.423Z,4.40
2022-10-07T03:41:21.385Z,4.75
2022-10-07T03:43:52.129Z,4.57
2022-10-07T03:46:22.860Z,4.55
2022-10-07T03:48:51.509Z,5.10
2022-10-07T03:51:19.552Z,4.60
2022-10-07T03:53:49.027Z,4.70
2022-10-07T03:56:17.304Z,4.40
2022-10-07T03:58:44.921Z,4.20
2022-10-07T04:01:14.973Z,4.45
2022-10-07T04:03:54.151Z,4.47
2022-10-07T04:06:21.689Z,4.70
2022-10-07T04:08:53.932Z,4.63
2022-10-07T04:11:21.551Z,5.43
2022-10-07T04:13:50.869Z,4.40
2022-10-07T04:16:20.079Z,5.13
2022-10-07T04:18:48.425Z,4.43
2022-10-07T04:21:16.850Z,4.50
2022-10-07T04:23:44.418Z,4.22
2022-10-07T04:26:13.971Z,4.03
2022-10-07T04:28:45.855Z,3.83
2022-10-07T04:31:18.486Z,3.88
2022-10-07T04:33:48.567Z,4.18
2022-10-07T04:36:21.868Z,3.70
2022-10-07T04:39:00.248Z,3.60
2022-10-07T04:41:33.365Z,3.33
2022-10-07T04:44:01.720Z,3.75
2022-10-07T04:46:33.890Z,4.05
2022-10-07T04:49:08.754Z,3.47
2022-10-07T04:51:36.564Z,3.47
2022-10-07T04:54:04.549Z,3.30
2022-10-07T04:56:55.440Z,3.13
2022-10-07T04:59:29.177Z,3.65
2022-10-07T05:01:58.168Z,3.83
2022-10-07T05:04:26.402Z,3.72
2022-10-07T05:06:55.257Z,3.85
2022-10-07T05:09:24.458Z,3.00
2022-10-07T05:11:55.612Z,2.92
2022-10-07T05:14:25.016Z,3.17
2022-10-07T05:16:53.792Z,3.70
2022-10-07T05:19:23.842Z,2.97
2022-10-07T05:21:51.467Z,3.22
2022-10-07T05:24:19.704Z,3.22
2022-10-07T05:26:48.589Z,3.00
2022-10-07T05:29:16.290Z,3.60
2022-10-07T05:31:49.291Z,3.28
2022-10-07T05:34:19.676Z,2.90
2022-10-07T05:36:47.419Z,2.95
2022-10-07T05:39:15.206Z,3.30
2022-10-07T05:41:49.962Z,3.15
2022-10-07T05:44:21.357Z,3.92
2022-10-07T05:46:53.380Z,3.50
2022-10-07T05:49:22.136Z,3.40
2022-10-07T05:51:50.517Z,3.60
2022-10-07T05:54:18.205Z,3.22
2022-10-07T05:56:46.215Z,3.40
2022-10-07T05:59:16.924Z,3.20
2022-10-07T06:01:45.922Z,3.30
2022-10-07T06:04:20.130Z,3.58
2022-10-07T06:06:49.520Z,3.30
2022-10-07T06:09:35.703Z,3.75
2022-10-07T06:12:27.864Z,3.55
2022-10-07T06:14:56.880Z,3.10
2022-10-07T06:17:24.482Z,3.45
2022-10-07T06:19:56.043Z,2.97
2022-10-07T06:22:24.444Z,3.25
2022-10-07T06:24:57.432Z,3.22
2022-10-07T06:27:25.567Z,3.03
2022-10-07T06:29:53.224Z,3.10
2022-10-07T06:32:20.898Z,3.38
2022-10-07T06:34:49.197Z,3.58
2022-10-07T06:37:19.474Z,3.45
2022-10-07T06:39:47.095Z,3.10
2022-10-07T06:42:14.697Z,3.40
2022-10-07T06:44:57.996Z,3.78
2022-10-07T06:47:25.896Z,3.40
2022-10-07T06:49:53.408Z,3.70
2022-10-07T06:52:22.442Z,3.53
2022-10-07T06:54:50.633Z,3.70
2022-10-07T06:57:44.478Z,4.15
2022-10-07T07:00:07.331Z,3.60
2022-10-07T07:02:36.634Z,3.63
2022-10-07T07:05:08.334Z,3.40
2022-10-07T07:07:38.161Z,3.58
2022-10-07T07:10:06.220Z,3.90
2022-10-07T07:12:36.093Z,4.43
2022-10-07T07:15:04.911Z,4.10
2022-10-07T07:17:33.160Z,4.03
2022-10-07T07:20:01.113Z,3.72
2022-10-07T07:22:31.143Z,4.07
2022-10-07T07:25:00.049Z,3.88
2022-10-07T07:27:27.884Z,3.90
2022-10-07T07:29:55.527Z,3.97
2022-10-07T07:32:23.112Z,4.63
2022-10-07T07:34:50.798Z,4.07
2022-10-07T07:37:21.629Z,4.53
2022-10-07T07:39:52.916Z,4.43
2022-10-07T07:42:21.963Z,3.67
2022-10-07T07:44:50.012Z,4.57
2022-10-07T07:47:18.847Z,4.28
2022-10-07T07:49:47.563Z,4.40
2022-10-07T07:52:22.871Z,3.95
2022-10-07T07:54:51.821Z,4.35
2022-10-07T07:57:22.644Z,4.20
2022-10-07T07:59:50.501Z,4.60
2022-10-07T08:02:19.340Z,4.53
2022-10-07T08:04:49.562Z,4.40
2022-10-07T08:07:17.632Z,4.43
2022-10-07T08:09:47.645Z,4.40
2022-10-07T08:12:15.834Z,4.13
2022-10-07T08:14:44.925Z,4.65
2022-10-07T08:17:13.686Z,4.32
2022-10-07T08:19:41.607Z,4.35
2022-10-07T08:22:10.360Z,4.07
2022-10-07T08:24:38.125Z,4.88
2022-10-07T08:27:06.014Z,4.68
2022-10-07T08:29:35.092Z,4.40
2022-10-07T08:32:04.205Z,4.35
2022-10-07T08:34:31.868Z,4.55
2022-10-07T08:36:59.413Z,4.25
2022-10-07T08:39:29.399Z,4.20
2022-10-07T08:42:01.011Z,4.68
2022-10-07T08:44:31.954Z,4.38
2022-10-07T08:47:02.673Z,4.55
2022-10-07T08:49:43.087Z,4.43
2022-10-07T08:52:20.912Z,4.80
2022-10-07T08:54:48.616Z,4.30
2022-10-07T08:57:20.424Z,4.35
2022-10-07T08:59:50.463Z,4.88
2022-10-07T09:02:27.228Z,4.18
2022-10-07T09:05:01.476Z,4.25
2022-10-07T09:07:32.324Z,3.90
2022-10-07T09:10:01.247Z,4.32
2022-10-07T09:12:31.334Z,4.43
2022-10-07T09:15:00.185Z,3.95
2022-10-07T09:17:34.865Z,4.30
2022-10-07T09:20:07.043Z,3.90
2022-10-07T09:22:36.023Z,3.97
2022-10-07T09:25:14.161Z,4.40
2022-10-07T09:27:41.663Z,4.43
2022-10-07T09:30:13.280Z,3.67
2022-10-07T09:32:42.684Z,3.83
2022-10-07T09:35:14.379Z,3.45
2022-10-07T09:37:55.740Z,4.07
2022-10-07T09:40:24.212Z,3.70
2022-10-07T09:42:51.783Z,3.50
2022-10-07T09:45:22.586Z,3.70
2022-10-07T09:47:52.513Z,3.10
2022-10-07T09:50:36.963Z,3.88
2022-10-07T09:53:05.112Z,3.35
2022-10-07T09:55:37.622Z,3.50
2022-10-07T09:58:06.054Z,3.47
2022-10-07T10:00:34.088Z,3.40
2022-10-07T10:03:06.174Z,3.28
2022-10-07T10:05:36.159Z,3.72
2022-10-07T10:08:05.419Z,3.78
2022-10-07T10:10:33.644Z,3.50
2022-10-07T10:13:02.359Z,3.28
2022-10-07T10:15:40.961Z,3.35
2022-10-07T10:18:35.803Z,3.33
2022-10-07T10:21:30.647Z,3.63
2022-10-07T10:24:00.307Z,4.00
2022-10-07T10:26:34.229Z,3.63
2022-10-07T10:29:11.307Z,3.92
2022-10-07T10:31:46.543Z,3.70
2022-10-07T10:34:21.724Z,3.28
2022-10-07T10:36:53.856Z,3.70
2022-10-07T10:39:27.193Z,3.42
2022-10-07T10:41:56.730Z,3.83
2022-10-07T10:44:32.620Z,4.32
2022-10-07T10:47:02.129Z,4.22
2022-10-07T10:49:30.776Z,3.70
2022-10-07T10:52:07.706Z,4.15
2022-10-07T10:54:45.752Z,3.97
2022-10-07T10:57:16.969Z,3.40
2022-10-07T10:59:56.784Z,3.08
2022-10-07T11:02:31.453Z,4.00
2022-10-07T11:04:59.694Z,3.70
2022-10-07T11:07:30.383Z,4.05
2022-10-07T11:10:00.848Z,3.60
2022-10-07T11:12:30.175Z,4.47
2022-10-07T11:14:59.687Z,3.17
2022-10-07T11:17:30.204Z,4.07
2022-10-07T11:20:04.045Z,3.83
2022-10-07T11:22:35.293Z,4.10
2022-10-07T11:25:09.367Z,3.72
2022-10-07T11:27:36.946Z,3.80
2022-10-07T11:30:07.783Z,4.10
2022-10-07T11:32:39.123Z,3.60
2022-10-07T11:35:13.301Z,3.67
2022-10-07T11:37:43.885Z,3.60
2022-10-07T11:40:12.846Z,3.80
2022-10-07T11:42:43.008Z,3.42
2022-10-07T11:45:12.702Z,3.65
2022-10-07T11:47:42.809Z,3.38
2022-10-07T11:50:14.179Z,3.78
2022-10-07T11:52:42.811Z,3.85
2022-10-07T11:55:12.962Z,3.60
2022-10-07T11:57:43.761Z,3.95
2022-10-07T12:00:23.411Z,4.18
2022-10-07T12:02:51.417Z,3.80
2022-10-07T12:05:38.219Z,3.50
2022-10-07T12:08:23.936Z,4.43
2022-10-07T12:10:54.285Z,3.47
2022-10-07T12:13:39.613Z,3.78
2022-10-07T12:16:22.081Z,3.72
2022-10-07T12:19:15.371Z,3.88
2022-10-07T12:22:02.851Z,3.65
2022-10-07T12:24:30.801Z,3.85
2022-10-07T12:26:59.329Z,3.67
2022-10-07T12:29:48.275Z,3.80
2022-10-07T12:32:34.891Z,3.60
2022-10-07T12:35:17.311Z,3.75
2022-10-07T12:37:51.678Z,3.97
2022-10-07T12:40:23.184Z,3.70
2022-10-07T12:42:56.645Z,4.10
2022-10-07T12:45:26.906Z,4.07
2022-10-07T12:47:56.930Z,4.05
2022-10-07T12:50:25.992Z,3.72
2022-10-07T12:52:56.602Z,3.33
2022-10-07T12:55:29.692Z,3.25
2022-10-07T12:58:19.258Z,4.55
2022-10-07T13:00:51.083Z,3.72
2022-10-07T13:03:36.889Z,3.45
2022-10-07T13:06:22.548Z,3.20
2022-10-07T13:09:15.984Z,4.13
2022-10-07T13:12:01.653Z,4.60
2022-10-07T13:14:33.249Z,3.83
2022-10-07T13:17:06.948Z,3.58
2022-10-07T13:19:37.663Z,3.40
2022-10-07T13:22:09.389Z,3.72
2022-10-07T13:24:40.316Z,4.25
2022-10-07T13:27:08.968Z,4.22
2022-10-07T13:29:36.618Z,3.70
2022-10-07T13:32:05.811Z,3.92
2022-10-07T13:34:33.695Z,3.70
2022-10-07T13:37:01.206Z,4.22
2022-10-07T13:39:30.529Z,3.42
2022-10-07T13:42:01.939Z,3.65
2022-10-07T13:44:31.725Z,3.60
2022-10-07T13:47:00.121Z,4.45
2022-10-07T13:49:30.282Z,3.80
2022-10-07T13:51:59.295Z,3.63
2022-10-07T13:54:28.599Z,3.65
2022-10-07T13:56:56.298Z,4.10
2022-10-07T13:59:25.361Z,4.47
2022-10-07T14:01:54.882Z,3.95
2022-10-07T14:04:25.031Z,4.13
2022-10-07T14:06:57.654Z,3.90
2022-10-07T14:09:36.025Z,3.65
2022-10-07T14:12:05.932Z,4.30
2022-10-07T14:14:37.107Z,3.72
2022-10-07T14:17:10.096Z,3.92
2022-10-07T14:19:38.293Z,3.75
2022-10-07T14:22:15.348Z,4.32
2022-10-07T14:24:42.893Z,3.40
2022-10-07T14:27:25.918Z,4.00
2022-10-07T14:29:54.916Z,4.07
2022-10-07T14:32:40.113Z,4.40
2022-10-07T14:35:20.899Z,4.13
2022-10-07T14:37:49.227Z,4.32
2022-10-07T14:40:17.891Z,3.60
2022-10-07T14:42:46.002Z,3.70
2022-10-07T14:45:17.825Z,3.38
2022-10-07T14:47:45.649Z,3.10
2022-10-07T14:50:14.176Z,3.88
2022-10-07T14:52:46.310Z,3.45
2022-10-07T14:55:15.627Z,3.35
2022-10-07T14:57:43.203Z,4.18
2022-10-07T15:00:15.005Z,3.92
2022-10-07T15:02:44.331Z,3.90
2022-10-07T15:05:12.750Z,4.63
2022-10-07T15:07:40.378Z,3.75
2022-10-07T15:10:13.032Z,3.88
2022-10-07T15:12:40.576Z,3.88
2022-10-07T15:15:08.572Z,3.63
2022-10-07T15:17:36.162Z,4.00
2022-10-07T15:20:05.755Z,4.35
2022-10-07T15:22:33.341Z,4.00
2022-10-07T15:25:01.631Z,3.83
2022-10-07T15:27:29.178Z,4.20
2022-10-07T15:29:56.752Z,4.05
2022-10-07T15:32:24.850Z,4.78
2022-10-07T15:34:55.082Z,4.10
2022-10-07T15:37:24.005Z,4.07
2022-10-07T15:39:52.232Z,3.55
2022-10-07T15:42:19.947Z,3.78
2022-10-07T15:44:49.447Z,3.97
2022-10-07T15:47:17.246Z,3.75
2022-10-07T15:49:44.765Z,4.60
2022-10-07T15:52:12.459Z,4.15
2022-10-07T15:54:41.451Z,4.05
2022-10-07T15:57:09.253Z,4.55
2022-10-07T15:59:36.778Z,5.00
2022-10-07T16:02:05.907Z,3.80
2022-10-07T16:04:33.727Z,4.13
2022-10-07T16:07:01.297Z,4.20
2022-10-07T16:09:29.044Z,4.35
2022-10-07T16:11:57.909Z,4.10
2022-10-07T16:14:25.540Z,3.65
2022-10-07T16:16:53.087Z,4.28
2022-10-07T16:19:20.645Z,4.20
2022-10-07T16:21:48.226Z,4.10
2022-10-07T16:24:16.844Z,4.65
2022-10-07T16:26:44.905Z,4.60
2022-10-07T16:29:33.120Z,4.38
2022-10-07T16:32:00.702Z,4.50
2022-10-07T16:34:28.931Z,4.75
2022-10-07T16:36:57.328Z,4.22
2022-10-07T16:39:25.178Z,4.70
2022-10-07T16:41:52.916Z,4.60
2022-10-07T16:44:22.384Z,4.55
2022-10-07T16:46:50.366Z,4.60
2022-10-07T16:49:18.627Z,4.65
2022-10-07T16:51:46.421Z,4.57
2022-10-07T16:54:15.747Z,4.47
2022-10-07T16:56:46.193Z,4.20
2022-10-07T16:59:18.498Z,4.35
2022-10-07T17:01:51.037Z,3.90
2022-10-07T17:04:18.871Z,4.07
2022-10-07T17:06:46.693Z,4.40
2022-10-07T17:09:14.574Z,4.97
2022-10-07T17:11:42.579Z,4.05
2022-10-07T17:14:11.313Z,3.88
2022-10-07T17:16:40.019Z,4.22
2022-10-07T17:19:09.353Z,3.80
2022-10-07T17:21:37.871Z,3.50
2022-10-07T17:24:05.576Z,3.53
2022-10-07T17:26:33.088Z,4.18
2022-10-07T17:29:01.957Z,5.40
2022-10-07T17:31:30.088Z,3.78
2022-10-07T17:33:58.420Z,3.88
2022-10-07T17:36:27.549Z,3.60
2022-10-07T17:38:55.084Z,3.75
2022-10-07T17:41:23.613Z,3.90
2022-10-07T17:43:51.868Z,4.20
2022-10-07T17:46:20.700Z,3.60
2022-10-07T17:48:49.005Z,3.83
2022-10-07T17:51:17.417Z,3.97
2022-10-07T17:53:46.880Z,3.83
2022-10-07T17:56:15.730Z,3.92
2022-10-07T17:58:44.619Z,3.90
2022-10-07T18:01:13.713Z,4.47
2022-10-07T18:03:41.473Z,4.10
2022-10-07T18:06:09.733Z,3.90
2022-10-07T18:08:40.383Z,4.35
2022-10-07T18:11:10.153Z,3.90
2022-10-07T18:13:55.348Z,3.90
2022-10-07T18:16:23.693Z,3.92
2022-10-07T18:18:54.260Z,3.80
2022-10-07T18:21:22.297Z,4.25
2022-10-07T18:23:49.815Z,4.43
2022-10-07T18:26:18.797Z,4.18
2022-10-07T18:28:46.944Z,3.80
2022-10-07T18:31:16.138Z,4.57
2022-10-07T18:33:44.682Z,4.10
2022-10-07T18:36:13.333Z,4.10
2022-10-07T18:38:42.192Z,5.13
2022-10-07T18:41:10.793Z,4.40
2022-10-07T18:43:40.088Z,4.32
2022-10-07T18:46:08.738Z,4.35
2022-10-07T18:48:37.415Z,4.65
2022-10-07T18:51:05.889Z,4.00
2022-10-07T18:53:34.120Z,4.38
2022-10-07T18:56:01.900Z,4.30
2022-10-07T18:58:29.762Z,3.75
2022-10-07T19:00:58.919Z,3.92
2022-10-07T19:03:26.621Z,3.97
2022-10-07T19:05:54.274Z,3.67
2022-10-07T19:08:21.937Z,3.67
2022-10-07T19:10:49.436Z,3.50
2022-10-07T19:13:34.630Z,3.80
2022-10-07T19:16:04.715Z,3.40
2022-10-07T19:18:33.765Z,3.25
2022-10-07T19:21:01.885Z,3.47
2022-10-07T19:23:29.736Z,3.35
2022-10-07T19:25:57.485Z,3.53
2022-10-07T19:28:25.725Z,3.50
2022-10-07T19:30:53.635Z,3.75
2022-10-07T19:33:23.940Z,3.83
2022-10-07T19:35:54.288Z,4.15
2022-10-07T19:38:22.700Z,3.75
2022-10-07T19:40:50.189Z,3.85
2022-10-07T19:43:17.759Z,4.65
2022-10-07T19:45:45.856Z,3.78
2022-10-07T19:48:14.763Z,3.72
2022-10-07T19:50:43.847Z,3.70
2022-10-07T19:53:11.355Z,3.65
2022-10-07T19:55:44.425Z,3.83
2022-10-07T19:58:12.128Z,4.28
2022-10-07T20:00:39.633Z,4.18
2022-10-07T20:03:07.135Z,4.35
2022-10-07T20:05:34.631Z,4.35
2022-10-07T20:08:06.847Z,4.32
2022-10-07T20:10:38.954Z,4.70
2022-10-07T20:13:06.746Z,4.45
2022-10-07T20:15:34.325Z,4.43
2022-10-07T20:18:03.592Z,3.80
2022-10-07T20:20:31.237Z,4.05
2022-10-07T20:22:59.385Z,4.13
2022-10-07T20:25:28.408Z,4.78
2022-10-07T20:27:55.996Z,4.50
2022-10-07T20:30:23.572Z,4.35
2022-10-07T20:32:51.115Z,3.90
2022-10-07T20:35:18.625Z,4.35
2022-10-07T20:37:46.172Z,4.10
2022-10-07T20:40:31.600Z,4.45
2022-10-07T20:43:00.832Z,5.05
2022-10-07T20:45:28.403Z,4.22
2022-10-07T20:47:59.419Z,4.78
2022-10-07T20:50:27.016Z,4.75
2022-10-07T20:52:54.744Z,4.07
2022-10-07T20:55:22.349Z,5.00
2022-10-07T20:57:49.992Z,4.63
2022-10-07T21:00:19.236Z,4.95
2022-10-07T21:02:47.103Z,4.53
2022-10-07T21:05:14.902Z,5.38
2022-10-07T21:07:43.127Z,4.63
2022-10-07T21:10:10.662Z,4.55
2022-10-07T21:12:40.271Z,4.95
2022-10-07T21:15:08.130Z,4.53
2022-10-07T21:17:37.208Z,4.60
2022-10-07T21:20:06.100Z,4.78
2022-10-07T21:22:33.666Z,5.00
2022-10-07T21:25:01.247Z,4.85
2022-10-07T21:27:29.095Z,4.57
2022-10-07T21:29:56.791Z,5.30
2022-10-07T21:32:24.336Z,4.65
2022-10-07T21:34:56.083Z,5.15
2022-10-07T21:37:23.647Z,5.13
2022-10-07T21:39:51.203Z,4.80
2022-10-07T21:42:18.881Z,4.70
2022-10-07T21:44:47.220Z,5.00
2022-10-07T21:47:14.905Z,5.22
2022-10-07T21:49:42.415Z,4.60
2022-10-07T21:52:11.308Z,4.32
2022-10-07T21:54:41.051Z,5.05
2022-10-07T21:57:08.651Z,4.72
2022-10-07T21:59:36.692Z,4.88
2022-10-07T22:02:04.868Z,5.25
2022-10-07T22:04:32.464Z,4.68
2022-10-07T22:07:17.702Z,4.80
2022-10-07T22:09:46.651Z,4.78
2022-10-07T22:12:15.280Z,4.63
2022-10-07T22:14:44.476Z,5.05
2022-10-07T22:17:12.743Z,5.05
2022-10-07T22:19:40.316Z,5.97
2022-10-07T22:22:08.244Z,4.70
2022-10-07T22:24:35.828Z,4.70
2022-10-07T22:27:04.968Z,4.90
2022-10-07T22:29:32.641Z,4.75
2022-10-07T22:32:00.181Z,4.93
2022-10-07T22:34:45.177Z,4.57
2022-10-07T22:37:12.697Z,4.53
2022-10-07T22:39:41.054Z,4.78
2022-10-07T22:42:10.020Z,4.63
2022-10-07T22:44:37.543Z,4.07
2022-10-07T22:47:05.156Z,4.40
2022-10-07T22:49:32.719Z,4.90
2022-10-07T22:52:00.457Z,4.38
2022-10-07T22:54:28.563Z,4.80
2022-10-07T22:56:56.209Z,4.10
2022-10-07T22:59:25.167Z,4.55
2022-10-07T23:01:52.898Z,4.65
2022-10-07T23:04:21.492Z,4.90
2022-10-07T23:06:49.226Z,4.15
2022-10-07T23:09:16.792Z,4.13
2022-10-07T23:11:44.625Z,4.68
2022-10-07T23:14:12.514Z,5.07
2022-10-07T23:16:41.866Z,4.85
2022-10-07T23:19:09.766Z,4.70
2022-10-07T23:21:37.289Z,4.50
2022-10-07T23:24:08.140Z,4.45
2022-10-07T23:26:36.517Z,4.05
2022-10-07T23:29:04.722Z,4.25
2022-10-07T23:31:32.998Z,4.57
2022-10-07T23:34:02.871Z,4.18
2022-10-07T23:36:30.498Z,4.50
2022-10-07T23:38:59.377Z,4.40
2022-10-07T23:41:27.748Z,4.30
2022-10-07T23:43:56.560Z,4.25
2022-10-07T23:46:24.988Z,4.65
2022-10-07T23:48:52.930Z,5.30
2022-10-07T23:51:22.681Z,4.78
2022-10-07T23:53:50.594Z,4.60
2022-10-07T23:56:19.161Z,4.13
2022-10-07T23:58:46.913Z,4.70
